Scroggins, Texas
Current Conditions -  °F | °C
As of 2:15 PM on Monday 24 Nov 2014 (Local Time) from KOSA Reporting Station
Clear Clear  
Wind Chill: 61°   Ceiling: Unl
Heat Index: 61°   Visibility: 10mi
Dew Point: 23°   Wind: 10mph
Humidity: 23%   Direction: 290°WNW
Pressure: 30.03"   Gusts: 16mph
Location:  33.07°N, 95.2°W
Report Text: KOSA 242015Z AUTO 29009G14KT 10SM CLR 16/M05 A3003 RMK AO1 T01611052
Loading
Personal Weather Stations






























Interactive Weather Map New forecast layout! Learn more

10-Day Weather Forecast

Advertisements
Track Severe Weather on mobile